Time;durP1;ratioP1;P1;durP2;ratioP2;P2;SDS_P1;SDS_P2;PMS_P1;PMS_P2;Temp;Humidity;BMP_temperature;BMP_pressure;BME280_temperature;BME280_humidity;BME280_pressure;Samples;Min_cycle;Max_cycle;Signal;HPM_P1;HPM_P2
2022/06/10 00:01:52;;;;;;;3.67;2.78;;;;;;;;;;5015698;28;20033;-68
2022/06/10 00:04:18;;;;;;;2.72;2.47;;;;;;;;;;5015489;28;20034;-68
2022/06/10 00:06:44;;;;;;;5.32;2.50;;;;;;;;;;5016029;28;20030;-68
2022/06/10 00:09:10;;;;;;;4.10;2.47;;;;;;;;;;5015324;28;20061;-68
2022/06/10 00:11:36;;;;;;;2.58;2.30;;;;;;;;;;5015697;28;20034;-68
2022/06/10 00:14:03;;;;;;;3.35;2.30;;;;;;;;;;5015404;28;20033;-68
2022/06/10 00:16:29;;;;;;;3.75;2.60;;;;;;;;;;5015255;28;20049;-68
2022/06/10 00:18:56;;;;;;;4.15;2.53;;;;;;;;;;5015359;28;20037;-68
2022/06/10 00:21:28;;;;;;;6.35;2.63;;;;;;;;;;5015311;28;20022;-68
2022/06/10 00:23:54;;;;;;;3.03;2.70;;;;;;;;;;5014937;28;20057;-68
2022/06/10 00:26:20;;;;;;;3.22;2.47;;;;;;;;;;5015228;28;20034;-68
2022/06/10 00:28:47;;;;;;;3.63;2.67;;;;;;;;;;5014866;28;20032;-68
2022/06/10 00:31:14;;;;;;;3.38;2.67;;;;;;;;;;5014886;28;20060;-68
2022/06/10 00:33:40;;;;;;;3.85;2.33;;;;;;;;;;5015549;28;20021;-68
2022/06/10 00:36:07;;;;;;;4.63;2.55;;;;;;;;;;5015020;28;20055;-68
2022/06/10 00:38:33;;;;;;;3.60;2.90;;;;;;;;;;5014776;28;20026;-68
2022/06/10 00:41:00;;;;;;;3.47;2.50;;;;;;;;;;5014979;28;20026;-68
2022/06/10 00:43:27;;;;;;;2.53;2.33;;;;;;;;;;5015168;28;20384;-68
2022/06/10 00:45:59;;;;;;;2.88;2.47;;;;;;;;;;5014670;28;20033;-68
2022/06/10 00:48:28;;;;;;;3.65;2.72;;;;;;;;;;5014797;28;20029;-68
2022/06/10 00:50:54;;;;;;;4.90;2.60;;;;;;;;;;5014510;28;20030;-68
2022/06/10 00:53:24;;;;;;;4.50;2.83;;;;;;;;;;5013462;28;20392;-68
2022/06/10 00:55:52;;;;;;;3.67;3.08;;;;;;;;;;5014642;28;20030;-68
2022/06/10 00:58:21;;;;;;;2.83;2.47;;;;;;;;;;5014584;28;20022;-68
2022/06/10 01:00:47;;;;;;;4.03;2.85;;;;;;;;;;5014810;28;20376;-68
2022/06/10 01:03:13;;;;;;;3.55;3.17;;;;;;;;;;5014686;28;20040;-68
2022/06/10 01:05:40;;;;;;;3.75;2.97;;;;;;;;;;5014521;28;20029;-68
2022/06/10 01:08:10;;;;;;;6.82;3.28;;;;;;;;;;5014516;28;20108;-68
2022/06/10 01:10:50;;;;;;;6.60;3.75;;;;;;;;;;5014569;28;20049;-67
2022/06/10 01:13:39;;;;;;;4.10;3.20;;;;;;;;;;5014469;28;20018;-68
2022/06/10 01:16:05;;;;;;;5.07;3.25;;;;;;;;;;5013898;28;20388;-68
2022/06/10 01:18:35;;;;;;;3.80;3.40;;;;;;;;;;5014198;28;20038;-68
2022/06/10 01:21:17;;;;;;;3.83;3.33;;;;;;;;;;5014121;28;20117;-68
2022/06/10 01:24:00;;;;;;;5.63;3.60;;;;;;;;;;5013742;28;20500;-68
2022/06/10 01:26:29;;;;;;;4.10;3.17;;;;;;;;;;5013963;28;20037;-68
2022/06/10 01:29:14;;;;;;;4.55;3.88;;;;;;;;;;5013920;28;20038;-68
2022/06/10 01:31:47;;;;;;;5.18;4.10;;;;;;;;;;5014271;28;20176;-69
2022/06/10 01:34:13;;;;;;;5.68;3.90;;;;;;;;;;5014092;28;20083;-68
2022/06/10 01:36:48;;;;;;;5.70;3.97;;;;;;;;;;5013875;28;20026;-69
2022/06/10 01:39:33;;;;;;;6.45;4.18;;;;;;;;;;5014237;28;20030;-69
2022/06/10 01:42:22;;;;;;;4.28;3.88;;;;;;;;;;5013273;28;20026;-70
2022/06/10 01:45:02;;;;;;;4.20;3.80;;;;;;;;;;5013763;28;20065;-68
2022/06/10 01:47:46;;;;;;;6.72;3.83;;;;;;;;;;5013725;28;20029;-68
2022/06/10 01:50:12;;;;;;;5.28;4.10;;;;;;;;;;5013632;28;20038;-68
2022/06/10 01:52:44;;;;;;;5.43;3.88;;;;;;;;;;5013843;28;20026;-68
2022/06/10 01:55:23;;;;;;;5.80;4.30;;;;;;;;;;5013804;28;20030;-68
2022/06/10 01:58:09;;;;;;;5.57;4.85;;;;;;;;;;5013558;28;20030;-68
2022/06/10 02:00:37;;;;;;;5.30;4.80;;;;;;;;;;5013363;28;20101;-68
2022/06/10 02:03:09;;;;;;;6.35;4.32;;;;;;;;;;5013498;28;20029;-68
2022/06/10 02:05:41;;;;;;;6.40;5.00;;;;;;;;;;5013448;28;20026;-68
2022/06/10 02:08:19;;;;;;;6.88;4.93;;;;;;;;;;5013313;28;20480;-68
2022/06/10 02:11:06;;;;;;;8.65;5.35;;;;;;;;;;5013685;28;20371;-68
2022/06/10 02:13:38;;;;;;;6.22;4.90;;;;;;;;;;5013541;28;20033;-68
2022/06/10 02:16:05;;;;;;;6.40;5.53;;;;;;;;;;5013289;28;20025;-68
2022/06/10 02:18:34;;;;;;;7.72;5.88;;;;;;;;;;5013308;28;20053;-68
2022/06/10 02:21:06;;;;;;;6.65;5.95;;;;;;;;;;5013310;28;20014;-68
2022/06/10 02:23:34;;;;;;;6.55;5.68;;;;;;;;;;5013215;28;20022;-68
2022/06/10 02:26:02;;;;;;;7.85;6.00;;;;;;;;;;5013114;28;20117;-69
2022/06/10 02:28:32;;;;;;;8.55;5.57;;;;;;;;;;5013131;28;20037;-68
2022/06/10 02:31:08;;;;;;;7.60;5.43;;;;;;;;;;5012999;28;20465;-68
2022/06/10 02:33:35;;;;;;;8.18;6.25;;;;;;;;;;5012998;28;20036;-68
2022/06/10 02:36:07;;;;;;;12.32;6.78;;;;;;;;;;5013335;28;20104;-68
2022/06/10 02:38:49;;;;;;;8.68;7.50;;;;;;;;;;5012911;28;20034;-69
2022/06/10 02:41:14;;;;;;;;;;;;;;;;;;5013901;28;20022;-68
2022/06/10 02:43:40;;;;;;;8.23;6.72;;;;;;;;;;5013297;28;20001;-69
2022/06/10 02:46:10;;;;;;;8.18;6.72;;;;;;;;;;5012932;28;20117;-69
2022/06/10 02:49:00;;;;;;;8.95;7.40;;;;;;;;;;5012848;28;20116;-69
2022/06/10 02:51:27;;;;;;;9.00;7.70;;;;;;;;;;5013246;28;20026;-69
2022/06/10 02:53:53;;;;;;;7.80;7.00;;;;;;;;;;5016359;28;20032;-69
2022/06/10 02:56:21;;;;;;;8.13;7.32;;;;;;;;;;5016691;28;20477;-69
2022/06/10 03:01:45;;;;;;;9.63;8.00;;;;;;;;;;5016669;28;20041;-69
2022/06/10 03:04:11;;;;;;;9.48;7.63;;;;;;;;;;5016627;28;20439;-69
2022/06/10 03:06:40;;;;;;;10.10;8.85;;;;;;;;;;5016611;28;20523;-69
2022/06/10 03:09:26;;;;;;;14.43;10.10;;;;;;;;;;5016523;28;20022;-69
2022/06/10 03:11:52;;;;;;;15.52;11.82;;;;;;;;;;5006143;28;20052;-68
2022/06/10 03:14:31;;;;;;;16.65;11.15;;;;;;;;;;5016684;28;20061;-69
2022/06/10 03:17:15;;;;;;;14.55;10.40;;;;;;;;;;5016501;28;20120;-69
2022/06/10 03:20:00;;;;;;;15.57;10.95;;;;;;;;;;5016632;28;20076;-69
2022/06/10 03:22:26;;;;;;;14.63;10.77;;;;;;;;;;5016411;28;20044;-69
2022/06/10 03:24:58;;;;;;;13.48;10.63;;;;;;;;;;5016221;28;20058;-68
2022/06/10 03:27:27;;;;;;;17.08;10.55;;;;;;;;;;5016318;28;20064;-69
2022/06/10 03:29:56;;;;;;;11.85;9.48;;;;;;;;;;5016403;28;20037;-69
2022/06/10 03:32:40;;;;;;;15.35;10.73;;;;;;;;;;5016392;28;20022;-69
2022/06/10 03:35:09;;;;;;;14.18;11.10;;;;;;;;;;5016376;28;20033;-69
2022/06/10 03:37:36;;;;;;;15.55;11.13;;;;;;;;;;5016082;28;20026;-69
2022/06/10 03:40:04;;;;;;;12.18;10.88;;;;;;;;;;5016188;28;20018;-68
2022/06/10 03:42:30;;;;;;;14.07;11.60;;;;;;;;;;5016083;28;20032;-69
2022/06/10 03:44:57;;;;;;;18.02;12.40;;;;;;;;;;5015947;28;20030;-69
2022/06/10 03:47:33;;;;;;;17.40;11.73;;;;;;;;;;5016306;28;20080;-68
2022/06/10 03:49:59;;;;;;;16.85;12.18;;;;;;;;;;5015953;28;20096;-68
2022/06/10 03:52:31;;;;;;;18.42;12.40;;;;;;;;;;5015839;28;20032;-68
2022/06/10 03:54:56;;;;;;;;;;;;;;;;;;5016230;28;20030;-69
2022/06/10 03:57:23;;;;;;;18.25;11.82;;;;;;;;;;5015806;28;19906;-69
2022/06/10 03:59:49;;;;;;;17.42;11.85;;;;;;;;;;5015717;28;20049;-68
2022/06/10 04:02:15;;;;;;;17.20;12.48;;;;;;;;;;5015465;28;20080;-68
2022/06/10 04:04:42;;;;;;;20.75;12.98;;;;;;;;;;5015004;28;20104;-69
2022/06/10 04:07:09;;;;;;;17.63;12.40;;;;;;;;;;5015575;28;20480;-69
2022/06/10 04:09:36;;;;;;;21.25;13.40;;;;;;;;;;5015771;28;20044;-69
2022/06/10 04:12:02;;;;;;;24.35;14.18;;;;;;;;;;5015602;28;20022;-68
2022/06/10 04:14:28;;;;;;;19.35;13.57;;;;;;;;;;5015454;28;20123;-68
2022/06/10 04:16:54;;;;;;;20.33;15.52;;;;;;;;;;5015477;28;20033;-68
2022/06/10 04:19:21;;;;;;;23.75;14.82;;;;;;;;;;5015621;28;20472;-68
2022/06/10 04:21:47;;;;;;;21.88;13.85;;;;;;;;;;5015193;28;20034;-68
2022/06/10 04:24:13;;;;;;;21.92;13.98;;;;;;;;;;5015150;28;20034;-68
2022/06/10 04:26:39;;;;;;;19.20;13.18;;;;;;;;;;5015265;28;20425;-68
2022/06/10 04:29:05;;;;;;;21.33;15.00;;;;;;;;;;5015102;28;20076;-69
2022/06/10 04:31:32;;;;;;;19.80;14.50;;;;;;;;;;5015393;28;20036;-69
2022/06/10 04:33:58;;;;;;;18.90;14.90;;;;;;;;;;5014834;28;20022;-68
2022/06/10 04:36:24;;;;;;;22.98;15.88;;;;;;;;;;5015200;28;20030;-69
2022/06/10 04:38:50;;;;;;;20.13;15.50;;;;;;;;;;5014888;28;20034;-69
2022/06/10 04:41:16;;;;;;;23.20;15.10;;;;;;;;;;5015350;28;20079;-69
2022/06/10 04:43:42;;;;;;;21.83;15.65;;;;;;;;;;5014865;28;20472;-69
2022/06/10 04:46:10;;;;;;;21.50;14.98;;;;;;;;;;5015159;28;20026;-68
2022/06/10 04:48:36;;;;;;;20.13;14.85;;;;;;;;;;4997604;28;20109;-68
2022/06/10 04:51:02;;;;;;;20.63;14.40;;;;;;;;;;5014580;28;20088;-69
2022/06/10 04:53:28;;;;;;;22.10;15.35;;;;;;;;;;5014840;28;20112;-69
2022/06/10 04:55:54;;;;;;;25.63;16.15;;;;;;;;;;5014883;28;20040;-68
2022/06/10 04:58:20;;;;;;;21.85;15.25;;;;;;;;;;5014234;28;20023;-68
2022/06/10 05:00:49;;;;;;;22.02;15.57;;;;;;;;;;5014267;28;20065;-69
2022/06/10 05:03:16;;;;;;;22.52;15.23;;;;;;;;;;5014032;28;20631;-69
2022/06/10 05:05:42;;;;;;;19.85;15.18;;;;;;;;;;5014637;28;20036;-69
2022/06/10 05:08:11;;;;;;;20.48;16.02;;;;;;;;;;5014378;28;20421;-69
2022/06/10 05:10:37;;;;;;;19.00;13.98;;;;;;;;;;5014234;28;20037;-69
2022/06/10 05:13:03;;;;;;;20.55;15.57;;;;;;;;;;5014253;28;20528;-68
2022/06/10 05:15:30;;;;;;;20.17;15.80;;;;;;;;;;5013665;28;20069;-68
2022/06/10 05:17:59;;;;;;;18.42;14.73;;;;;;;;;;5013634;28;20022;-69
2022/06/10 05:20:30;;;;;;;18.63;14.90;;;;;;;;;;5014170;28;20029;-69
2022/06/10 05:22:56;;;;;;;19.05;15.35;;;;;;;;;;5014121;28;20026;-68
2022/06/10 05:25:22;;;;;;;19.08;15.48;;;;;;;;;;5013810;28;20496;-69
2022/06/10 05:27:48;;;;;;;20.73;14.75;;;;;;;;;;5013966;28;20052;-69
2022/06/10 05:30:19;;;;;;;20.55;14.50;;;;;;;;;;5013785;28;20029;-68
2022/06/10 05:32:45;;;;;;;30.27;16.38;;;;;;;;;;5013923;28;20384;-69
2022/06/10 05:35:11;;;;;;;20.05;14.48;;;;;;;;;;5013806;28;20109;-68
2022/06/10 05:37:37;;;;;;;18.75;14.45;;;;;;;;;;5014180;28;20030;-69
2022/06/10 05:40:04;;;;;;;17.98;15.45;;;;;;;;;;5013873;28;20063;-69
2022/06/10 05:42:30;;;;;;;22.38;15.93;;;;;;;;;;5013864;28;20022;-68
2022/06/10 05:44:56;;;;;;;22.52;17.00;;;;;;;;;;5013584;28;20431;-69
2022/06/10 05:47:23;;;;;;;22.30;16.30;;;;;;;;;;5013867;28;20026;-69
2022/06/10 05:49:51;;;;;;;34.20;22.38;;;;;;;;;;5013490;28;20030;-69
2022/06/10 05:52:18;;;;;;;21.77;16.83;;;;;;;;;;5012330;28;20496;-69
2022/06/10 05:54:45;;;;;;;22.15;16.58;;;;;;;;;;5013674;28;20030;-69
2022/06/10 05:57:12;;;;;;;22.15;18.00;;;;;;;;;;5013730;28;20018;-68
2022/06/10 05:59:38;;;;;;;21.77;17.63;;;;;;;;;;5013175;28;20022;-68
2022/06/10 06:02:06;;;;;;;20.55;17.63;;;;;;;;;;5013346;28;20105;-68
2022/06/10 06:04:32;;;;;;;22.02;16.67;;;;;;;;;;5013280;28;20030;-68
2022/06/10 06:06:58;;;;;;;19.15;16.52;;;;;;;;;;5013348;28;20068;-68
2022/06/10 06:09:26;;;;;;;20.08;17.20;;;;;;;;;;5013137;28;20026;-68
2022/06/10 06:11:54;;;;;;;21.73;17.00;;;;;;;;;;5013168;28;20468;-68
2022/06/10 06:14:21;;;;;;;25.88;17.05;;;;;;;;;;5013144;28;20026;-68
2022/06/10 06:16:58;;;;;;;22.98;18.08;;;;;;;;;;5013065;28;20049;-68
2022/06/10 06:19:25;;;;;;;21.80;17.17;;;;;;;;;;5013057;28;20033;-68
2022/06/10 06:21:51;;;;;;;19.83;17.27;;;;;;;;;;5013306;28;20026;-68
2022/06/10 06:24:17;;;;;;;22.52;17.77;;;;;;;;;;5013011;28;20484;-68
2022/06/10 06:26:43;;;;;;;20.15;16.70;;;;;;;;;;5013304;28;20484;-68
2022/06/10 06:29:09;;;;;;;20.80;18.00;;;;;;;;;;5012803;28;20022;-68
2022/06/10 06:31:36;;;;;;;22.33;17.85;;;;;;;;;;5013163;28;20030;-68
2022/06/10 06:34:02;;;;;;;24.33;18.58;;;;;;;;;;5012914;28;20077;-68
2022/06/10 06:36:28;;;;;;;22.25;19.05;;;;;;;;;;5013420;28;20381;-68
2022/06/10 06:38:57;;;;;;;22.67;18.27;;;;;;;;;;5012878;28;20800;-69
2022/06/10 06:41:23;;;;;;;22.15;19.85;;;;;;;;;;5013086;28;20026;-68
2022/06/10 06:43:49;;;;;;;21.42;18.88;;;;;;;;;;5012807;28;20026;-68
2022/06/10 06:46:16;;;;;;;25.65;20.27;;;;;;;;;;5013150;28;20045;-68
2022/06/10 06:48:44;;;;;;;23.92;19.95;;;;;;;;;;5011441;28;20042;-68
2022/06/10 06:51:10;;;;;;;24.50;20.65;;;;;;;;;;5012748;28;20045;-68
2022/06/10 06:53:37;;;;;;;23.60;20.30;;;;;;;;;;5012855;28;20472;-68
2022/06/10 06:56:03;;;;;;;27.00;21.40;;;;;;;;;;5012802;28;20030;-68
2022/06/10 06:58:30;;;;;;;21.40;19.17;;;;;;;;;;5012776;28;20101;-68
2022/06/10 07:00:56;;;;;;;23.13;19.77;;;;;;;;;;5012778;28;20026;-68
2022/06/10 07:03:22;;;;;;;24.17;21.58;;;;;;;;;;5012655;28;20098;-68
2022/06/10 07:05:49;;;;;;;22.98;20.23;;;;;;;;;;5012991;28;20034;-68
2022/06/10 07:08:17;;;;;;;23.08;19.95;;;;;;;;;;5012909;28;20119;-68
2022/06/10 07:10:43;;;;;;;21.95;19.55;;;;;;;;;;5012709;28;20029;-68
2022/06/10 07:13:09;;;;;;;20.20;18.00;;;;;;;;;;5013130;28;20080;-68
2022/06/10 07:15:37;;;;;;;23.05;19.20;;;;;;;;;;5012541;28;20080;-68
2022/06/10 07:18:04;;;;;;;24.65;20.77;;;;;;;;;;5012546;28;20026;-68
2022/06/10 07:20:31;;;;;;;22.25;17.75;;;;;;;;;;5012607;28;20376;-69
2022/06/10 07:22:59;;;;;;;21.70;19.35;;;;;;;;;;5012684;28;20472;-68
2022/06/10 07:25:25;;;;;;;19.33;17.30;;;;;;;;;;5010600;28;20046;-68
2022/06/10 07:27:55;;;;;;;23.95;18.25;;;;;;;;;;5012599;28;20026;-68
2022/06/10 07:30:23;;;;;;;30.98;25.10;;;;;;;;;;5012660;28;20032;-68
2022/06/10 07:32:49;;;;;;;23.15;18.25;;;;;;;;;;5012411;28;20104;-68
2022/06/10 07:35:15;;;;;;;22.90;19.75;;;;;;;;;;5012784;28;20030;-68
2022/06/10 07:37:41;;;;;;;26.83;20.05;;;;;;;;;;5012365;28;20026;-68
2022/06/10 07:41:56;;;;;;;28.35;18.98;;;;;;;;;;5014410;28;20392;-68
2022/06/10 07:42:54;;;;;;;25.08;18.23;;;;;;;;;;5015869;28;20103;-68
2022/06/10 07:45:20;;;;;;;24.05;16.88;;;;;;;;;;5015814;28;20502;-68
2022/06/10 07:47:46;;;;;;;27.23;18.00;;;;;;;;;;5015791;28;20026;-68
2022/06/10 07:50:12;;;;;;;23.40;16.92;;;;;;;;;;5015723;28;20034;-68
2022/06/10 07:52:38;;;;;;;26.02;16.42;;;;;;;;;;5015527;28;20155;-68
2022/06/10 07:55:05;;;;;;;33.78;18.80;;;;;;;;;;5015576;28;20022;-68
2022/06/10 07:57:31;;;;;;;23.67;16.73;;;;;;;;;;5015506;28;20424;-68
2022/06/10 07:59:57;;;;;;;22.50;16.48;;;;;;;;;;5015615;28;20030;-68
2022/06/10 08:02:23;;;;;;;30.13;17.85;;;;;;;;;;5015629;28;20052;-68
2022/06/10 08:04:49;;;;;;;23.55;17.23;;;;;;;;;;5015592;28;20037;-68
2022/06/10 08:07:15;;;;;;;25.77;17.70;;;;;;;;;;5015771;28;20104;-68
2022/06/10 08:09:41;;;;;;;49.72;21.30;;;;;;;;;;5015374;28;20037;-68
2022/06/10 08:12:07;;;;;;;31.30;16.92;;;;;;;;;;5015208;28;20568;-68
2022/06/10 08:14:33;;;;;;;34.65;18.88;;;;;;;;;;5015662;28;20034;-68
2022/06/10 08:17:03;;;;;;;23.17;16.65;;;;;;;;;;5015540;28;20029;-68
2022/06/10 08:19:32;;;;;;;38.03;17.17;;;;;;;;;;5015248;28;20018;-69
2022/06/10 08:24:43;;;;;;;34.28;15.45;;;;;;;;;;5014898;28;20440;-68
2022/06/10 08:27:09;;;;;;;27.40;16.90;;;;;;;;;;5015122;28;20034;-68
2022/06/10 08:29:35;;;;;;;28.90;16.98;;;;;;;;;;5014957;28;20519;-68
2022/06/10 08:32:01;;;;;;;26.38;16.17;;;;;;;;;;5014856;28;20499;-68
2022/06/10 08:34:27;;;;;;;29.15;15.77;;;;;;;;;;5014928;28;20074;-69
2022/06/10 08:36:53;;;;;;;17.30;14.52;;;;;;;;;;5014788;28;20069;-68
2022/06/10 08:39:19;;;;;;;21.85;15.05;;;;;;;;;;5014650;28;20033;-68
2022/06/10 08:42:01;;;;;;;24.98;15.95;;;;;;;;;;5014875;28;20112;-69
2022/06/10 08:44:37;;;;;;;28.65;16.95;;;;;;;;;;5014866;28;20037;-69
2022/06/10 08:47:22;;;;;;;23.27;18.85;;;;;;;;;;5013284;28;20053;-68
2022/06/10 08:49:59;;;;;;;27.92;17.83;;;;;;;;;;5014200;28;20042;-68
2022/06/10 08:52:38;;;;;;;21.30;16.38;;;;;;;;;;5014661;28;20087;-68
2022/06/10 08:55:13;;;;;;;19.83;16.38;;;;;;;;;;5014579;28;20026;-68
2022/06/10 08:57:41;;;;;;;33.88;21.05;;;;;;;;;;5014468;28;20053;-68
2022/06/10 09:00:21;;;;;;;21.63;16.67;;;;;;;;;;5014384;28;20026;-68
2022/06/10 09:03:00;;;;;;;26.67;18.00;;;;;;;;;;5014219;28;20049;-68
2022/06/10 09:05:49;;;;;;;24.70;20.88;;;;;;;;;;5014335;28;20037;-68
2022/06/10 09:08:17;;;;;;;38.75;19.80;;;;;;;;;;4953974;29;20047;-68
2022/06/10 09:10:43;;;;;;;22.52;17.40;;;;;;;;;;4953931;28;20047;-68
2022/06/10 09:13:12;;;;;;;38.22;18.67;;;;;;;;;;4953633;28;20105;-68
2022/06/10 09:16:05;;;;;;;37.22;18.92;;;640.20;2432.00;;;;;;4953696;29;20035;-68
2022/06/10 09:18:34;;;;;;;23.90;17.80;;;640.20;2432.00;;;;;;4943307;28;20127;-67
2022/06/10 09:21:11;;;;;;;27.77;18.52;;;640.20;2432.00;;;;;;4953634;29;20059;-68
2022/06/10 09:23:40;;;;;;;23.88;17.08;;;;;;;;;;4953197;28;20572;-67
2022/06/10 09:26:10;;;;;;;23.10;16.10;;;;;;;;;;4953447;28;20055;-68
2022/06/10 09:28:37;;;;;;;32.75;15.52;;;;;;;;;;4953664;29;20027;-68
2022/06/10 09:31:33;;;;;;;30.25;16.08;;;640.20;2432.00;;;;;;4953454;28;20399;-68
2022/06/10 09:34:19;;;;;;;39.55;17.48;;;640.00;2432.00;;;;;;4953055;28;20062;-68
2022/06/10 09:36:50;;;;;;;26.33;15.35;;;640.10;2432.00;;;;;;4953322;29;20102;-68
2022/06/10 09:42:44;;;;;;;20.27;14.40;;;640.10;2432.00;;;;;;4933909;29;20108;-68
2022/06/10 09:45:16;;;;;;;23.58;17.20;;;615.30;2432.00;;;;;;4886092;29;20491;-68
2022/06/10 09:47:47;;;;;;;28.17;17.88;;;615.30;2432.00;;;;;;4896118;29;20503;-68
2022/06/10 09:50:56;;;;;;;18.20;16.30;;;615.30;2432.00;;;;;;4896117;29;20546;-68
2022/06/10 09:53:59;;;;;;;32.92;18.35;;;640.00;2432.00;;;;;;4858172;29;20044;-67
2022/06/10 09:56:42;;;;;;;34.75;19.60;;;640.00;2432.00;;;;;;4785881;30;20521;-68
2022/06/10 09:59:14;;;;;;;51.65;20.83;;;640.00;2432.00;;;;;;4785738;29;20047;-68
2022/06/10 10:02:23;;;;;;;65.07;21.25;;;615.30;2432.00;;;;;;4785667;29;20064;-68
2022/06/10 10:04:48;;;;;;;21.02;18.05;;;615.30;2432.00;;;;;;4785625;29;20403;-68
2022/06/10 10:07:37;;;;;;;27.33;17.63;;;615.30;2432.00;;;;;;4785784;30;20039;-68
2022/06/10 10:10:25;;;;;;;22.63;17.25;;;615.30;2432.00;;;;;;4785390;29;20035;-68
2022/06/10 10:13:16;;;;;;;43.88;23.70;;;615.30;2432.00;;;;;;4785770;29;20035;-68
2022/06/10 10:16:00;;;;;;;29.17;18.52;;;615.30;2432.00;;;;;;4785948;30;20039;-68
2022/06/10 10:18:49;;;;;;;46.97;18.42;;;640.00;2432.00;;;;;;4799672;29;20050;-68
2022/06/10 10:21:25;;;;;;;29.65;18.45;;;640.10;2432.00;;;;;;4826307;29;20046;-68
2022/06/10 10:23:55;;;;;;;25.95;17.15;;;640.20;2432.00;;;;;;4858353;29;20093;-69
2022/06/10 10:26:34;;;;;;;27.60;19.33;;;640.30;2432.00;;;;;;4858501;29;20088;-68
2022/06/10 10:29:11;;;;;;;17.83;15.85;;;640.40;2432.00;;;;;;4862350;29;20678;-69
2022/06/10 10:31:57;;;;;;;24.35;17.40;;;640.50;2432.00;;;;;;4914443;29;20101;-69
2022/06/10 10:34:34;;;;;;;15.30;13.70;;;640.60;2432.00;;;;;;5010278;28;20497;-69
2022/06/10 10:37:03;;;;;;;17.00;14.68;;;640.70;2432.00;;;;;;5012847;28;20026;-69
2022/06/10 10:39:35;;;;;;;18.25;16.35;;;640.70;2432.00;;;;;;5013338;28;20021;-68
2022/06/10 10:42:16;;;;;;;16.55;14.85;;;;;;;;;;5013030;28;20113;-69
2022/06/10 10:44:44;;;;;;;16.77;15.15;;;;;;;;;;5013082;28;20034;-68
2022/06/10 10:47:10;;;;;;;18.75;15.43;;;666.00;2432.00;;;;;;5012841;28;20481;-69
2022/06/10 10:49:56;;;;;;;17.10;13.73;;;;;;;;;;5012703;28;20108;-69
2022/06/10 10:52:30;;;;;;;14.65;13.15;;;;;;;;;;5013023;28;20022;-68
2022/06/10 10:55:07;;;;;;;16.52;14.73;;;;;;;;;;5012917;28;20088;-68
2022/06/10 10:57:38;;;;;;;14.88;13.27;;;;;;;;;;5012634;28;20084;-67
2022/06/10 11:00:04;;;;;;;16.27;12.60;;;;;;;;;;5012541;28;20030;-68
2022/06/10 11:02:30;;;;;;;16.27;10.70;;;;;;;;;;5013226;28;20353;-69
2022/06/10 11:05:14;;;;;;;22.48;12.52;;;;;;;;;;5012770;28;20103;-68
2022/06/10 11:07:42;;;;;;;13.73;12.32;;;;;;;;;;5013047;28;20034;-68
2022/06/10 11:10:19;;;;;;;14.02;11.40;;;;;;;;;;5012899;28;20472;-68
2022/06/10 11:12:45;;;;;;;22.60;13.50;;;;;;;;;;5012536;28;20022;-68
2022/06/10 11:15:22;;;;;;;17.13;10.43;;;;;;;;;;5015172;28;20041;-68
2022/06/10 11:17:49;;;;;;;23.15;11.68;;;;;;;;;;5016832;28;20026;-68
2022/06/10 11:20:16;;;;;;;43.40;15.52;;;;;;;;;;5016314;28;20077;-70
2022/06/10 11:22:44;;;;;;;13.23;10.07;;;;;;;;;;5016221;28;20030;-68
2022/06/10 11:25:16;;;;;;;15.13;12.00;;;;;;;;;;5016094;28;20042;-69
2022/06/10 11:27:57;;;;;;;24.52;12.35;;;;;;;;;;5016390;28;20026;-70
2022/06/10 11:30:35;;;;;;;17.60;10.05;;;;;;;;;;5016538;28;20058;-70
2022/06/10 11:33:02;;;;;;;17.10;10.70;;;;;;;;;;5016419;28;20026;-69
2022/06/10 11:35:33;;;;;;;26.35;11.02;;;;;;;;;;5015903;28;20056;-69
2022/06/10 11:38:02;;;;;;;20.70;10.57;;;;;;;;;;5015838;28;20036;-69
2022/06/10 11:40:28;;;;;;;40.20;11.05;;;;;;;;;;5015969;28;20029;-69
2022/06/10 11:42:58;;;;;;;10.00;8.60;;;;;;;;;;5015810;28;20022;-69
2022/06/10 11:45:47;;;;;;;13.45;9.60;;;;;;;;;;5016092;28;20030;-69
2022/06/10 11:48:16;;;;;;;35.22;11.90;;;;;;;;;;5015697;28;20049;-69
2022/06/10 11:51:01;;;;;;;17.60;9.30;;;;;;;;;;5015653;28;20531;-69
2022/06/10 11:53:46;;;;;;;12.30;8.10;;;717.50;2201.60;;;;;;5014025;28;20053;-69
2022/06/10 12:01:54;;;;;;;30.17;10.50;;;717.40;2227.20;;;;;;5015607;28;20092;-70
2022/06/10 12:04:31;;;;;;;22.98;8.55;;;717.40;2227.20;;;;;;5015525;28;20405;-68
2022/06/10 12:07:00;;;;;;;27.60;10.00;;;717.20;2201.60;;;;;;5014245;28;20030;-68
2022/06/10 12:09:32;;;;;;;18.65;9.82;;;;;;;;;;5015251;28;20018;-69
2022/06/10 12:11:58;;;;;;;19.48;10.88;;;;;;;;;;5013567;28;20077;-69
2022/06/10 12:14:27;;;;;;;33.05;10.43;;;;;;;;;;5015427;28;20018;-69
2022/06/10 12:16:58;;;;;;;21.92;9.32;;;;;;;;;;5015562;28;20052;-69
2022/06/10 12:19:28;;;;;;;20.70;9.87;;;;;;;;;;5015085;28;20042;-69
2022/06/10 12:21:54;;;;;;;33.37;11.83;;;;;;;;;;5015098;28;20101;-69
2022/06/10 12:24:20;;;;;;;17.75;9.70;;;;;;;;;;5015072;28;20049;-69
2022/06/10 12:26:51;;;;;;;18.90;10.60;;;;;;;;;;5014819;28;20026;-69
2022/06/10 12:29:37;;;;;;;162.40;24.65;;;;;;;;;;5013905;28;20025;-69
2022/06/10 12:32:14;;;;;;;36.55;10.90;;;;;;;;;;5013694;28;20168;-69
2022/06/10 12:34:40;;;;;;;48.70;11.57;;;;;;;;;;5014750;28;20508;-69
2022/06/10 12:37:08;;;;;;;25.00;10.68;;;;;;;;;;5014961;28;20033;-69
2022/06/10 12:39:51;;;;;;;20.90;10.00;;;;;;;;;;5014725;28;20476;-70
2022/06/10 12:42:20;;;;;;;21.23;9.35;;;;;;;;;;5015162;28;20030;-69
2022/06/10 12:44:54;;;;;;;15.43;9.07;;;742.40;2227.20;;;;;;5014871;28;20028;-69
2022/06/10 12:47:27;;;;;;;13.98;8.85;;;717.70;2227.20;;;;;;5014520;28;20026;-69
2022/06/10 12:49:58;;;;;;;13.70;8.65;;;742.50;2252.80;;;;;;5014800;28;20061;-69
2022/06/10 12:52:53;;;;;;;10.85;8.20;;;;;;;;;;5014532;28;20496;-69
2022/06/10 12:55:27;;;;;;;15.00;8.55;;;;;;;;;;4934751;29;20042;-68
2022/06/10 12:57:53;;;;;;;21.77;9.20;;;;;;;;;;4934725;29;20031;-69
2022/06/10 13:00:19;;;;;;;26.38;9.02;;;;;;;;;;4934799;29;20031;-69
2022/06/10 13:02:48;;;;;;;21.10;9.48;;;;;;;;;;4934906;29;20043;-69
2022/06/10 13:05:20;;;;;;;20.45;8.95;;;;;;;;;;4934488;29;20127;-69
2022/06/10 13:07:49;;;;;;;31.77;12.82;;;;;;;;;;4934822;29;20142;-69
2022/06/10 13:10:30;;;;;;;15.00;8.35;;;;;;;;;;4934672;29;20063;-69
2022/06/10 13:12:59;;;;;;;14.18;9.02;;;;;;;;;;4934800;29;20500;-69
2022/06/10 13:15:29;;;;;;;28.30;9.45;;;;;;;;;;4934665;29;20036;-69
2022/06/10 13:18:06;;;;;;;13.65;8.63;;;;;;;;;;4934658;29;20031;-69
2022/06/10 13:20:38;;;;;;;15.68;8.30;;;;;;;;;;4934513;29;20091;-69
2022/06/10 13:23:09;;;;;;;26.42;9.25;;;;;;;;;;4934394;29;20023;-69
2022/06/10 13:25:35;;;;;;;;;;;;;;;;;;4934714;29;20095;-69
2022/06/10 13:28:01;;;;;;;17.13;9.02;;;;;;;;;;4934504;29;19960;-69
2022/06/10 13:30:29;;;;;;;23.63;8.85;;;;;;;;;;4934291;29;20043;-69
2022/06/10 13:32:56;;;;;;;11.93;7.95;;;;;;;;;;4994601;28;20048;-69
2022/06/10 13:35:45;;;;;;;9.70;6.97;;;;;;;;;;4994418;28;20089;-69
2022/06/10 13:38:17;;;;;;;10.80;7.60;;;;;;;;;;4917666;29;20055;-69
2022/06/10 13:40:51;;;;;;;55.97;13.43;;;;;;;;;;4934063;29;20071;-69
2022/06/10 13:43:22;;;;;;;31.58;11.82;;;;;;;;;;4934239;29;20062;-69
2022/06/10 13:45:49;;;;;;;35.90;12.15;;;;;;;;;;4934177;29;20107;-69
2022/06/10 13:48:17;;;;;;;18.48;9.57;;;;;;;;;;4933809;29;20107;-69
2022/06/10 13:51:12;;;;;;;17.92;9.55;;;;;;;;;;4933748;29;20043;-69
2022/06/10 13:53:53;;;;;;;21.88;13.98;;;;;;;;;;4934161;29;20561;-69
2022/06/10 13:56:19;;;;;;;;;;;;;;;;;;4934144;29;20051;-69
2022/06/10 13:58:52;;;;;;;35.00;15.50;;;;;;;;;;4933826;29;19906;-69
2022/06/10 14:01:22;;;;;;;13.73;10.27;;;;;;;;;;4933811;29;20036;-69
2022/06/10 14:03:52;;;;;;;17.40;10.38;;;;;;;;;;4934151;29;20502;-69
2022/06/10 14:06:23;;;;;;;28.33;10.83;;;;;;;;;;4933657;29;20051;-69
2022/06/10 14:08:57;;;;;;;14.60;9.32;;;;;;;;;;4933833;29;20047;-69
2022/06/10 14:11:49;;;;;;;25.38;11.50;;;;;;;;;;4933584;29;20036;-69
2022/06/10 14:14:21;;;;;;;48.97;14.65;;;;;;;;;;4906015;28;20046;-69
2022/06/10 14:16:58;;;;;;;32.88;12.07;;;;;;;;;;4993733;28;20026;-69
2022/06/10 14:19:24;;;;;;;21.83;10.98;;;;;;;;;;4993534;28;20041;-68
2022/06/10 14:21:50;;;;;;;45.97;12.82;;;;;;;;;;4993342;28;20471;-69
2022/06/10 14:24:19;;;;;;;19.23;9.85;;;;;;;;;;4999002;28;20041;-69
2022/06/10 14:27:03;;;;;;;19.80;10.68;;;;;;;;;;5012922;28;20036;-69
2022/06/10 14:29:38;;;;;;;19.70;11.13;;;;;;;;;;5013046;28;20404;-69
2022/06/10 14:32:15;;;;;;;35.55;11.80;;;;;;;;;;5012998;28;20029;-70
2022/06/10 14:34:45;;;;;;;21.08;10.88;;;;;;;;;;5013017;28;20061;-69
2022/06/10 14:37:27;;;;;;;11.27;8.90;;;;;;;;;;5012965;28;20030;-69
2022/06/10 14:40:11;;;;;;;17.10;9.85;;;;;;;;;;5013178;28;20026;-69
2022/06/10 14:42:39;;;;;;;15.02;9.50;;;;;;;;;;5013044;28;20095;-69
2022/06/10 14:45:25;;;;;;;20.52;9.90;;;692.10;2252.80;;;;;;5012997;28;20109;-69
2022/06/10 14:48:08;;;;;;;17.45;10.70;;;;;;;;;;5013149;28;20384;-69